sensor_id;sensor_type;location;lat;lon;timestamp;pressure;altitude;pressure_sealevel;temperature;humidity
77159;BME280;66129;45.890;13.714;2023-06-26T00:01:02;101005.72;;;22.42;55.42
77159;BME280;66129;45.890;13.714;2023-06-26T00:03:28;101012.59;;;22.46;54.87
77159;BME280;66129;45.890;13.714;2023-06-26T00:05:54;101008.47;;;22.36;55.38
77159;BME280;66129;45.890;13.714;2023-06-26T00:08:19;101002.50;;;22.31;55.05
77159;BME280;66129;45.890;13.714;2023-06-26T00:10:45;101003.59;;;22.21;55.06
77159;BME280;66129;45.890;13.714;2023-06-26T00:13:11;100994.69;;;22.29;54.50
77159;BME280;66129;45.890;13.714;2023-06-26T00:15:37;101008.13;;;22.49;54.02
77159;BME280;66129;45.890;13.714;2023-06-26T00:18:03;101001.72;;;22.62;53.49
77159;BME280;66129;45.890;13.714;2023-06-26T00:20:28;101000.75;;;22.66;53.39
77159;BME280;66129;45.890;13.714;2023-06-26T00:22:54;100996.63;;;22.57;53.92
77159;BME280;66129;45.890;13.714;2023-06-26T00:25:20;101000.81;;;22.63;53.63
77159;BME280;66129;45.890;13.714;2023-06-26T00:27:46;101004.38;;;22.60;53.42
77159;BME280;66129;45.890;13.714;2023-06-26T00:30:12;100992.34;;;22.53;53.66
77159;BME280;66129;45.890;13.714;2023-06-26T00:32:37;101004.41;;;22.59;53.35
77159;BME280;66129;45.890;13.714;2023-06-26T00:35:03;100993.09;;;22.58;53.45
77159;BME280;66129;45.890;13.714;2023-06-26T00:37:28;100993.88;;;22.62;53.54
77159;BME280;66129;45.890;13.714;2023-06-26T00:39:54;101000.91;;;22.60;53.11
77159;BME280;66129;45.890;13.714;2023-06-26T00:42:19;100990.44;;;22.60;53.31
77159;BME280;66129;45.890;13.714;2023-06-26T00:44:45;100993.94;;;22.59;53.35
77159;BME280;66129;45.890;13.714;2023-06-26T00:47:14;100982.88;;;22.49;53.32
77159;BME280;66129;45.890;13.714;2023-06-26T00:49:40;100986.34;;;22.50;53.50
77159;BME280;66129;45.890;13.714;2023-06-26T00:52:06;100989.97;;;22.45;54.09
77159;BME280;66129;45.890;13.714;2023-06-26T00:54:32;100995.25;;;22.42;53.97
77159;BME280;66129;45.890;13.714;2023-06-26T00:56:57;100988.69;;;22.26;55.42
77159;BME280;66129;45.890;13.714;2023-06-26T00:59:23;100993.53;;;22.04;56.97
77159;BME280;66129;45.890;13.714;2023-06-26T01:01:48;100998.44;;;21.81;58.63
77159;BME280;66129;45.890;13.714;2023-06-26T01:04:14;101000.72;;;21.55;59.18
77159;BME280;66129;45.890;13.714;2023-06-26T01:06:47;101002.97;;;21.29;59.65
77159;BME280;66129;45.890;13.714;2023-06-26T01:09:17;100994.75;;;21.08;60.72
77159;BME280;66129;45.890;13.714;2023-06-26T01:11:43;101001.13;;;20.92;61.51
77159;BME280;66129;45.890;13.714;2023-06-26T01:14:09;101008.34;;;20.77;61.98
77159;BME280;66129;45.890;13.714;2023-06-26T01:16:35;101006.75;;;20.68;62.06
77159;BME280;66129;45.890;13.714;2023-06-26T01:19:01;101003.41;;;20.62;62.19
77159;BME280;66129;45.890;13.714;2023-06-26T01:21:27;101000.94;;;20.53;63.55
77159;BME280;66129;45.890;13.714;2023-06-26T01:26:33;100991.56;;;20.43;64.01
77159;BME280;66129;45.890;13.714;2023-06-26T01:29:04;100992.56;;;20.34;65.74
77159;BME280;66129;45.890;13.714;2023-06-26T01:31:31;100993.53;;;20.29;64.66
77159;BME280;66129;45.890;13.714;2023-06-26T01:33:58;100986.56;;;20.31;64.82
77159;BME280;66129;45.890;13.714;2023-06-26T01:36:25;100974.63;;;20.19;65.98
77159;BME280;66129;45.890;13.714;2023-06-26T01:38:50;100975.53;;;20.16;67.12
77159;BME280;66129;45.890;13.714;2023-06-26T01:41:17;100970.56;;;19.98;67.08
77159;BME280;66129;45.890;13.714;2023-06-26T01:44:11;100966.41;;;19.86;66.36
77159;BME280;66129;45.890;13.714;2023-06-26T01:47:00;100970.28;;;20.18;63.17
77159;BME280;66129;45.890;13.714;2023-06-26T01:49:49;100961.53;;;20.71;60.68
77159;BME280;66129;45.890;13.714;2023-06-26T01:52:31;100963.13;;;20.79;63.41
77159;BME280;66129;45.890;13.714;2023-06-26T01:55:20;100969.72;;;20.51;64.55
77159;BME280;66129;45.890;13.714;2023-06-26T01:57:47;100974.50;;;20.25;65.57
77159;BME280;66129;45.890;13.714;2023-06-26T02:00:15;100968.00;;;19.99;66.76
77159;BME280;66129;45.890;13.714;2023-06-26T02:02:43;100971.81;;;19.74;67.84
77159;BME280;66129;45.890;13.714;2023-06-26T02:05:09;100974.53;;;19.65;68.42
77159;BME280;66129;45.890;13.714;2023-06-26T02:07:34;100978.19;;;19.51;68.65
77159;BME280;66129;45.890;13.714;2023-06-26T02:10:00;100975.69;;;19.45;68.52
77159;BME280;66129;45.890;13.714;2023-06-26T02:12:25;100969.69;;;19.38;68.74
77159;BME280;66129;45.890;13.714;2023-06-26T02:14:51;100967.03;;;19.44;68.28
77159;BME280;66129;45.890;13.714;2023-06-26T02:17:16;100973.06;;;19.45;68.93
77159;BME280;66129;45.890;13.714;2023-06-26T02:19:42;100980.06;;;19.41;68.69
77159;BME280;66129;45.890;13.714;2023-06-26T02:22:13;100987.78;;;19.47;69.49
77159;BME280;66129;45.890;13.714;2023-06-26T02:24:39;100975.81;;;19.34;70.37
77159;BME280;66129;45.890;13.714;2023-06-26T02:27:04;100980.31;;;19.22;70.98
77159;BME280;66129;45.890;13.714;2023-06-26T02:29:30;100984.69;;;19.18;71.21
77159;BME280;66129;45.890;13.714;2023-06-26T02:31:55;100997.69;;;19.17;71.84
77159;BME280;66129;45.890;13.714;2023-06-26T02:34:20;100998.59;;;19.13;71.76
77159;BME280;66129;45.890;13.714;2023-06-26T02:36:46;100997.81;;;19.03;73.19
77159;BME280;66129;45.890;13.714;2023-06-26T02:39:11;100996.13;;;19.01;72.05
77159;BME280;66129;45.890;13.714;2023-06-26T02:41:37;100991.03;;;18.89;73.78
77159;BME280;66129;45.890;13.714;2023-06-26T02:44:02;100991.16;;;18.79;74.69
77159;BME280;66129;45.890;13.714;2023-06-26T02:46:28;101004.97;;;18.84;75.01
77159;BME280;66129;45.890;13.714;2023-06-26T02:48:53;101001.63;;;18.70;75.82
77159;BME280;66129;45.890;13.714;2023-06-26T02:51:19;101010.38;;;18.61;76.23
77159;BME280;66129;45.890;13.714;2023-06-26T02:53:44;100996.59;;;18.55;76.78
77159;BME280;66129;45.890;13.714;2023-06-26T02:56:09;101001.00;;;18.44;77.44
77159;BME280;66129;45.890;13.714;2023-06-26T02:58:35;100997.59;;;18.40;77.45
77159;BME280;66129;45.890;13.714;2023-06-26T03:01:00;100997.63;;;18.34;78.12
77159;BME280;66129;45.890;13.714;2023-06-26T03:03:26;100997.63;;;18.34;78.44
77159;BME280;66129;45.890;13.714;2023-06-26T03:05:51;101001.97;;;18.32;78.04
77159;BME280;66129;45.890;13.714;2023-06-26T03:08:17;101000.19;;;18.37;78.39
77159;BME280;66129;45.890;13.714;2023-06-26T03:10:42;100998.56;;;18.29;79.04
77159;BME280;66129;45.890;13.714;2023-06-26T03:13:07;101002.91;;;18.24;79.31
77159;BME280;66129;45.890;13.714;2023-06-26T03:15:33;101009.78;;;18.29;78.86
77159;BME280;66129;45.890;13.714;2023-06-26T03:17:58;101009.78;;;18.23;79.33
77159;BME280;66129;45.890;13.714;2023-06-26T03:20:24;101013.28;;;18.16;79.82
77159;BME280;66129;45.890;13.714;2023-06-26T03:22:49;101016.78;;;18.14;80.43
77159;BME280;66129;45.890;13.714;2023-06-26T03:25:15;101004.69;;;18.13;80.44
77159;BME280;66129;45.890;13.714;2023-06-26T03:27:40;101010.78;;;18.03;80.59
77159;BME280;66129;45.890;13.714;2023-06-26T03:30:06;101021.22;;;17.95;81.57
77159;BME280;66129;45.890;13.714;2023-06-26T03:32:31;101011.81;;;17.78;81.92
77159;BME280;66129;45.890;13.714;2023-06-26T03:34:57;101016.22;;;17.67;82.99
77159;BME280;66129;45.890;13.714;2023-06-26T03:37:22;101017.09;;;17.63;82.80
77159;BME280;66129;45.890;13.714;2023-06-26T03:39:47;101023.13;;;17.68;82.54
77159;BME280;66129;45.890;13.714;2023-06-26T03:42:13;101023.97;;;17.69;82.41
77159;BME280;66129;45.890;13.714;2023-06-26T03:44:38;101026.59;;;17.63;82.43
77159;BME280;66129;45.890;13.714;2023-06-26T03:47:04;101025.75;;;17.58;82.80
77159;BME280;66129;45.890;13.714;2023-06-26T03:49:29;101024.88;;;17.63;83.08
77159;BME280;66129;45.890;13.714;2023-06-26T03:51:55;101021.41;;;17.66;82.04
77159;BME280;66129;45.890;13.714;2023-06-26T03:54:20;101023.13;;;17.67;82.97
77159;BME280;66129;45.890;13.714;2023-06-26T03:56:46;101033.47;;;17.76;82.78
77159;BME280;66129;45.890;13.714;2023-06-26T03:59:11;101021.34;;;17.73;82.21
77159;BME280;66129;45.890;13.714;2023-06-26T04:01:37;101032.50;;;17.90;82.39
77159;BME280;66129;45.890;13.714;2023-06-26T04:04:03;101025.56;;;17.95;82.02
77159;BME280;66129;45.890;13.714;2023-06-26T04:06:28;101028.09;;;18.01;81.48
77159;BME280;66129;45.890;13.714;2023-06-26T04:08:56;101031.56;;;18.00;82.23
77159;BME280;66129;45.890;13.714;2023-06-26T04:11:22;101036.78;;;17.97;82.47
77159;BME280;66129;45.890;13.714;2023-06-26T04:13:47;101036.75;;;18.00;84.46
77159;BME280;66129;45.890;13.714;2023-06-26T04:16:13;101036.63;;;18.19;82.86
77159;BME280;66129;45.890;13.714;2023-06-26T04:18:38;101025.28;;;18.41;81.24
77159;BME280;66129;45.890;13.714;2023-06-26T04:21:11;101026.69;;;18.74;79.84
77159;BME280;66129;45.890;13.714;2023-06-26T04:23:38;101040.22;;;19.08;78.26
77159;BME280;66129;45.890;13.714;2023-06-26T04:26:05;101032.16;;;19.34;76.31
77159;BME280;66129;45.890;13.714;2023-06-26T04:28:31;101026.72;;;19.52;75.82
77159;BME280;66129;45.890;13.714;2023-06-26T04:30:58;101032.50;;;19.76;74.81
77159;BME280;66129;45.890;13.714;2023-06-26T04:33:24;101034.78;;;19.96;74.18
77159;BME280;66129;45.890;13.714;2023-06-26T04:35:51;101021.53;;;20.17;72.64
77159;BME280;66129;45.890;13.714;2023-06-26T04:38:16;101027.09;;;20.48;71.48
77159;BME280;66129;45.890;13.714;2023-06-26T04:40:42;101033.66;;;20.70;70.51
77159;BME280;66129;45.890;13.714;2023-06-26T04:43:07;101034.94;;;20.97;69.90
77159;BME280;66129;45.890;13.714;2023-06-26T04:45:33;101024.13;;;21.16;68.62
77159;BME280;66129;45.890;13.714;2023-06-26T04:47:58;101034.88;;;21.43;67.98
77159;BME280;66129;45.890;13.714;2023-06-26T04:50:25;101031.16;;;21.56;67.86
77159;BME280;66129;45.890;13.714;2023-06-26T04:52:51;101039.44;;;21.75;65.58
77159;BME280;66129;45.890;13.714;2023-06-26T04:55:16;101032.31;;;21.84;66.79
77159;BME280;66129;45.890;13.714;2023-06-26T04:57:42;101042.13;;;22.11;66.07
77159;BME280;66129;45.890;13.714;2023-06-26T05:00:08;101035.13;;;22.13;64.81
77159;BME280;66129;45.890;13.714;2023-06-26T05:02:36;101039.00;;;22.34;64.34
77159;BME280;66129;45.890;13.714;2023-06-26T05:05:02;101045.31;;;22.60;64.35
77159;BME280;66129;45.890;13.714;2023-06-26T05:07:27;101039.66;;;22.76;64.93
77159;BME280;66129;45.890;13.714;2023-06-26T05:09:53;101033.25;;;22.88;64.95
77159;BME280;66129;45.890;13.714;2023-06-26T05:12:18;101031.19;;;23.00;62.77
77159;BME280;66129;45.890;13.714;2023-06-26T05:14:44;101036.88;;;23.17;61.96
77159;BME280;66129;45.890;13.714;2023-06-26T05:17:09;101036.94;;;23.45;61.68
77159;BME280;66129;45.890;13.714;2023-06-26T05:19:35;101037.03;;;23.42;61.13
77159;BME280;66129;45.890;13.714;2023-06-26T05:22:01;101035.66;;;23.88;60.03
77159;BME280;66129;45.890;13.714;2023-06-26T05:24:33;101032.44;;;24.07;60.09
77159;BME280;66129;45.890;13.714;2023-06-26T05:27:00;101019.06;;;24.44;59.30
77159;BME280;66129;45.890;13.714;2023-06-26T05:29:26;101023.44;;;24.69;58.27
77159;BME280;66129;45.890;13.714;2023-06-26T05:31:53;101028.00;;;24.88;56.32
77159;BME280;66129;45.890;13.714;2023-06-26T05:34:22;101029.53;;;25.20;55.15
77159;BME280;66129;45.890;13.714;2023-06-26T05:36:50;101019.84;;;25.22;55.12
77159;BME280;66129;45.890;13.714;2023-06-26T05:39:17;101025.69;;;25.53;55.23
77159;BME280;66129;45.890;13.714;2023-06-26T05:41:45;101029.94;;;25.80;53.40
77159;BME280;66129;45.890;13.714;2023-06-26T05:44:11;101022.94;;;26.01;53.48
77159;BME280;66129;45.890;13.714;2023-06-26T05:46:36;101015.44;;;26.35;52.09
77159;BME280;66129;45.890;13.714;2023-06-26T05:49:02;101019.28;;;26.48;51.84
77159;BME280;66129;45.890;13.714;2023-06-26T05:51:28;101022.69;;;26.72;51.37
77159;BME280;66129;45.890;13.714;2023-06-26T05:53:54;101027.81;;;26.95;50.75
77159;BME280;66129;45.890;13.714;2023-06-26T05:56:20;101033.16;;;26.93;51.41
77159;BME280;66129;45.890;13.714;2023-06-26T05:58:46;101032.94;;;26.98;51.69
77159;BME280;66129;45.890;13.714;2023-06-26T06:01:11;101032.97;;;27.17;49.75
77159;BME280;66129;45.890;13.714;2023-06-26T06:03:39;101029.34;;;27.20;49.15
77159;BME280;66129;45.890;13.714;2023-06-26T06:06:05;101022.81;;;27.28;49.50
77159;BME280;66129;45.890;13.714;2023-06-26T06:08:30;101031.16;;;27.76;48.44
77159;BME280;66129;45.890;13.714;2023-06-26T06:10:56;101025.94;;;28.12;46.88
77159;BME280;66129;45.890;13.714;2023-06-26T06:13:21;101033.78;;;28.32;46.99
77159;BME280;66129;45.890;13.714;2023-06-26T06:15:48;101032.84;;;28.49;46.90
77159;BME280;66129;45.890;13.714;2023-06-26T06:18:13;101025.44;;;28.74;46.05
77159;BME280;66129;45.890;13.714;2023-06-26T06:20:39;101022.03;;;28.89;45.96
77159;BME280;66129;45.890;13.714;2023-06-26T06:23:04;101027.34;;;29.06;45.38
77159;BME280;66129;45.890;13.714;2023-06-26T06:25:31;101019.69;;;29.17;45.12
77159;BME280;66129;45.890;13.714;2023-06-26T06:27:56;101022.53;;;29.30;44.83
77159;BME280;66129;45.890;13.714;2023-06-26T06:30:25;101016.72;;;29.55;44.99
77159;BME280;66129;45.890;13.714;2023-06-26T06:32:52;101022.25;;;29.83;43.51
77159;BME280;66129;45.890;13.714;2023-06-26T06:35:18;101022.75;;;29.90;43.65
77159;BME280;66129;45.890;13.714;2023-06-26T06:37:44;101023.78;;;30.03;43.64
77159;BME280;66129;45.890;13.714;2023-06-26T06:40:10;101029.50;;;30.26;43.61
77159;BME280;66129;45.890;13.714;2023-06-26T06:42:36;101020.50;;;30.44;43.39
77159;BME280;66129;45.890;13.714;2023-06-26T06:45:03;101019.03;;;30.69;42.27
77159;BME280;66129;45.890;13.714;2023-06-26T06:47:29;101005.06;;;30.81;42.49
77159;BME280;66129;45.890;13.714;2023-06-26T06:49:55;101021.97;;;31.08;41.85
77159;BME280;66129;45.890;13.714;2023-06-26T06:52:20;101008.53;;;31.25;41.03
77159;BME280;66129;45.890;13.714;2023-06-26T06:54:56;100996.72;;;31.45;37.79
77159;BME280;66129;45.890;13.714;2023-06-26T06:57:26;101006.22;;;31.63;40.57
77159;BME280;66129;45.890;13.714;2023-06-26T06:59:52;101002.97;;;32.12;38.82
77159;BME280;66129;45.890;13.714;2023-06-26T07:02:17;101009.16;;;32.12;37.19
77159;BME280;66129;45.890;13.714;2023-06-26T07:04:42;101005.41;;;32.29;36.45
77159;BME280;66129;45.890;13.714;2023-06-26T07:07:08;100998.47;;;32.26;36.50
77159;BME280;66129;45.890;13.714;2023-06-26T07:09:34;101008.00;;;32.55;36.19
77159;BME280;66129;45.890;13.714;2023-06-26T07:11:59;101010.47;;;32.58;33.69
77159;BME280;66129;45.890;13.714;2023-06-26T07:14:25;101010.47;;;32.85;33.62
77159;BME280;66129;45.890;13.714;2023-06-26T07:16:50;101015.19;;;33.31;33.54
77159;BME280;66129;45.890;13.714;2023-06-26T07:19:16;101005.50;;;33.42;34.04
77159;BME280;66129;45.890;13.714;2023-06-26T07:21:41;101013.34;;;33.56;33.14
77159;BME280;66129;45.890;13.714;2023-06-26T07:24:08;101013.84;;;33.86;31.95
77159;BME280;66129;45.890;13.714;2023-06-26T07:26:34;101019.66;;;33.91;30.42
77159;BME280;66129;45.890;13.714;2023-06-26T07:28:59;101010.78;;;33.67;31.15
77159;BME280;66129;45.890;13.714;2023-06-26T07:31:24;101013.13;;;34.08;30.94
77159;BME280;66129;45.890;13.714;2023-06-26T07:33:50;101011.38;;;34.19;31.28
77159;BME280;66129;45.890;13.714;2023-06-26T07:36:16;101003.00;;;34.59;30.09
77159;BME280;66129;45.890;13.714;2023-06-26T07:38:42;101006.88;;;35.01;30.81
77159;BME280;66129;45.890;13.714;2023-06-26T07:41:07;100999.69;;;35.25;29.84
77159;BME280;66129;45.890;13.714;2023-06-26T07:43:33;101006.88;;;34.32;31.07
77159;BME280;66129;45.890;13.714;2023-06-26T07:45:58;100996.88;;;34.70;30.86
77159;BME280;66129;45.890;13.714;2023-06-26T07:48:25;100994.50;;;34.78;31.34
77159;BME280;66129;45.890;13.714;2023-06-26T07:50:50;100991.06;;;34.65;30.52
77159;BME280;66129;45.890;13.714;2023-06-26T07:53:16;100992.78;;;34.88;29.99
77159;BME280;66129;45.890;13.714;2023-06-26T07:55:43;100987.22;;;34.91;30.48
77159;BME280;66129;45.890;13.714;2023-06-26T07:58:09;100990.84;;;34.79;30.47
77159;BME280;66129;45.890;13.714;2023-06-26T08:00:35;101005.13;;;35.12;30.90
77159;BME280;66129;45.890;13.714;2023-06-26T08:03:00;100997.34;;;35.09;29.56
77159;BME280;66129;45.890;13.714;2023-06-26T08:05:26;100998.03;;;34.89;30.70
77159;BME280;66129;45.890;13.714;2023-06-26T08:07:51;101003.31;;;35.24;28.39
77159;BME280;66129;45.890;13.714;2023-06-26T08:10:17;100997.25;;;34.76;29.10
77159;BME280;66129;45.890;13.714;2023-06-26T08:12:42;101004.88;;;35.37;29.24
77159;BME280;66129;45.890;13.714;2023-06-26T08:15:10;100996.91;;;35.48;28.63
77159;BME280;66129;45.890;13.714;2023-06-26T08:17:37;101003.03;;;35.05;28.40
77159;BME280;66129;45.890;13.714;2023-06-26T08:20:04;101002.84;;;35.30;27.84
77159;BME280;66129;45.890;13.714;2023-06-26T08:22:30;100997.88;;;35.58;25.68
77159;BME280;66129;45.890;13.714;2023-06-26T08:24:55;100990.44;;;35.94;26.74
77159;BME280;66129;45.890;13.714;2023-06-26T08:27:20;100985.84;;;35.74;26.00
77159;BME280;66129;45.890;13.714;2023-06-26T08:29:46;100992.91;;;36.29;27.69
77159;BME280;66129;45.890;13.714;2023-06-26T08:32:11;100983.94;;;35.33;27.67
77159;BME280;66129;45.890;13.714;2023-06-26T08:34:37;100987.03;;;35.05;28.47
77159;BME280;66129;45.890;13.714;2023-06-26T08:37:02;100983.31;;;35.18;26.46
77159;BME280;66129;45.890;13.714;2023-06-26T08:39:28;100977.16;;;34.83;27.48
77159;BME280;66129;45.890;13.714;2023-06-26T08:41:53;100984.03;;;35.53;27.23
77159;BME280;66129;45.890;13.714;2023-06-26T08:44:19;100976.59;;;35.89;24.78
77159;BME280;66129;45.890;13.714;2023-06-26T08:46:49;100979.28;;;35.89;26.44
77159;BME280;66129;45.890;13.714;2023-06-26T08:49:18;100968.34;;;36.35;27.34
77159;BME280;66129;45.890;13.714;2023-06-26T08:51:51;100979.81;;;36.57;27.73
77159;BME280;66129;45.890;13.714;2023-06-26T08:54:22;100977.34;;;36.34;26.81
77159;BME280;66129;45.890;13.714;2023-06-26T08:56:52;100961.59;;;36.20;28.05
77159;BME280;66129;45.890;13.714;2023-06-26T08:59:18;100961.81;;;36.59;27.20
77159;BME280;66129;45.890;13.714;2023-06-26T09:01:44;100960.97;;;36.48;26.79
77159;BME280;66129;45.890;13.714;2023-06-26T09:04:10;100962.03;;;36.36;25.86
77159;BME280;66129;45.890;13.714;2023-06-26T09:06:36;100962.94;;;35.83;25.48
77159;BME280;66129;45.890;13.714;2023-06-26T09:09:02;100970.69;;;35.64;26.53
77159;BME280;66129;45.890;13.714;2023-06-26T09:11:29;100966.44;;;35.50;29.33
77159;BME280;66129;45.890;13.714;2023-06-26T09:13:55;100960.41;;;35.59;28.90
77159;BME280;66129;45.890;13.714;2023-06-26T09:16:27;100959.16;;;35.09;28.70
77159;BME280;66129;45.890;13.714;2023-06-26T09:18:53;100968.53;;;34.69;30.08
77159;BME280;66129;45.890;13.714;2023-06-26T09:21:18;100959.69;;;34.34;28.38
77159;BME280;66129;45.890;13.714;2023-06-26T09:23:44;100954.78;;;34.51;30.32
77159;BME280;66129;45.890;13.714;2023-06-26T09:26:11;100962.84;;;34.73;29.65
77159;BME280;66129;45.890;13.714;2023-06-26T09:28:36;100950.44;;;35.18;28.10
77159;BME280;66129;45.890;13.714;2023-06-26T09:31:06;100937.72;;;35.32;28.34
77159;BME280;66129;45.890;13.714;2023-06-26T09:33:37;100946.34;;;35.25;27.87
77159;BME280;66129;45.890;13.714;2023-06-26T09:36:19;100945.00;;;35.30;30.09
77159;BME280;66129;45.890;13.714;2023-06-26T09:38:45;100939.53;;;35.42;28.58
77159;BME280;66129;45.890;13.714;2023-06-26T09:41:11;100948.88;;;35.37;27.92
77159;BME280;66129;45.890;13.714;2023-06-26T09:43:49;100932.03;;;35.26;29.38
77159;BME280;66129;45.890;13.714;2023-06-26T09:46:28;100928.13;;;35.41;30.91
77159;BME280;66129;45.890;13.714;2023-06-26T09:49:04;100932.63;;;35.51;29.76
77159;BME280;66129;45.890;13.714;2023-06-26T09:51:31;100941.97;;;35.24;30.06
77159;BME280;66129;45.890;13.714;2023-06-26T09:53:58;100933.34;;;35.31;31.80
77159;BME280;66129;45.890;13.714;2023-06-26T09:56:24;100924.25;;;35.44;29.67
77159;BME280;66129;45.890;13.714;2023-06-26T09:58:49;100929.84;;;35.09;29.92
77159;BME280;66129;45.890;13.714;2023-06-26T10:01:15;100925.44;;;34.40;29.80
77159;BME280;66129;45.890;13.714;2023-06-26T10:03:40;100922.13;;;34.26;31.20
77159;BME280;66129;45.890;13.714;2023-06-26T10:06:09;100907.09;;;34.14;29.96
77159;BME280;66129;45.890;13.714;2023-06-26T10:08:37;100906.19;;;33.90;30.02
77159;BME280;66129;45.890;13.714;2023-06-26T10:11:03;100925.84;;;33.77;32.90
77159;BME280;66129;45.890;13.714;2023-06-26T10:13:31;100926.25;;;33.47;30.90
77159;BME280;66129;45.890;13.714;2023-06-26T10:16:00;100907.81;;;33.57;32.69
77159;BME280;66129;45.890;13.714;2023-06-26T10:18:27;100911.53;;;33.54;32.98
77159;BME280;66129;45.890;13.714;2023-06-26T10:20:56;100906.59;;;33.73;32.04
77159;BME280;66129;45.890;13.714;2023-06-26T10:23:23;100915.41;;;33.74;33.57
77159;BME280;66129;45.890;13.714;2023-06-26T10:25:51;100908.16;;;33.52;34.07
77159;BME280;66129;45.890;13.714;2023-06-26T10:28:19;100919.31;;;33.57;32.98
77159;BME280;66129;45.890;13.714;2023-06-26T10:30:47;100915.69;;;33.58;32.88
77159;BME280;66129;45.890;13.714;2023-06-26T10:33:13;100917.44;;;33.34;33.15
77159;BME280;66129;45.890;13.714;2023-06-26T10:35:45;100909.63;;;32.83;31.12
77159;BME280;66129;45.890;13.714;2023-06-26T10:38:11;100899.22;;;32.80;31.88
77159;BME280;66129;45.890;13.714;2023-06-26T10:40:45;100887.81;;;33.03;34.08
77159;BME280;66129;45.890;13.714;2023-06-26T10:43:12;100907.69;;;32.85;32.87
77159;BME280;66129;45.890;13.714;2023-06-26T10:45:45;100888.38;;;32.83;33.07
77159;BME280;66129;45.890;13.714;2023-06-26T10:48:14;100878.91;;;32.79;33.45
77159;BME280;66129;45.890;13.714;2023-06-26T10:50:40;100896.84;;;32.76;34.14
77159;BME280;66129;45.890;13.714;2023-06-26T10:56:04;100877.41;;;32.75;36.23
77159;BME280;66129;45.890;13.714;2023-06-26T11:03:37;100874.84;;;32.86;34.05
77159;BME280;66129;45.890;13.714;2023-06-26T11:06:20;100892.91;;;33.18;36.02
77159;BME280;66129;45.890;13.714;2023-06-26T11:08:52;100889.00;;;33.47;33.92
77159;BME280;66129;45.890;13.714;2023-06-26T11:11:19;100897.38;;;33.18;33.60
77159;BME280;66129;45.890;13.714;2023-06-26T11:13:46;100894.81;;;33.04;34.65
77159;BME280;66129;45.890;13.714;2023-06-26T11:16:13;100889.91;;;33.10;34.81
77159;BME280;66129;45.890;13.714;2023-06-26T11:18:40;100887.06;;;33.01;36.10
77159;BME280;66129;45.890;13.714;2023-06-26T11:21:08;100870.06;;;32.79;35.59
77159;BME280;66129;45.890;13.714;2023-06-26T11:23:35;100892.59;;;32.86;34.18
77159;BME280;66129;45.890;13.714;2023-06-26T11:26:18;100872.28;;;32.60;34.45
77159;BME280;66129;45.890;13.714;2023-06-26T11:31:39;100881.56;;;32.92;34.69
77159;BME280;66129;45.890;13.714;2023-06-26T11:34:07;100868.28;;;32.92;37.24
77159;BME280;66129;45.890;13.714;2023-06-26T11:36:34;100875.78;;;33.22;37.86
77159;BME280;66129;45.890;13.714;2023-06-26T11:39:04;100865.63;;;32.92;32.34
77159;BME280;66129;45.890;13.714;2023-06-26T11:41:34;100857.66;;;32.67;33.79
77159;BME280;66129;45.890;13.714;2023-06-26T11:44:04;100867.41;;;32.91;35.39
77159;BME280;66129;45.890;13.714;2023-06-26T11:46:30;100861.66;;;32.97;35.55
77159;BME280;66129;45.890;13.714;2023-06-26T11:48:56;100861.53;;;32.99;35.68
77159;BME280;66129;45.890;13.714;2023-06-26T11:51:21;100862.19;;;33.02;34.91
77159;BME280;66129;45.890;13.714;2023-06-26T11:53:47;100866.69;;;32.77;33.75
77159;BME280;66129;45.890;13.714;2023-06-26T11:56:17;100858.72;;;32.77;33.99
77159;BME280;66129;45.890;13.714;2023-06-26T11:58:59;100860.50;;;32.89;35.12
77159;BME280;66129;45.890;13.714;2023-06-26T12:01:39;100867.28;;;33.17;34.70
77159;BME280;66129;45.890;13.714;2023-06-26T12:04:09;100869.09;;;33.53;33.59
77159;BME280;66129;45.890;13.714;2023-06-26T12:06:36;100865.59;;;33.52;36.85
77159;BME280;66129;45.890;13.714;2023-06-26T12:09:05;100864.91;;;33.38;33.60
77159;BME280;66129;45.890;13.714;2023-06-26T12:11:32;100868.47;;;33.13;35.19
77159;BME280;66129;45.890;13.714;2023-06-26T12:13:59;100866.53;;;33.28;35.59
77159;BME280;66129;45.890;13.714;2023-06-26T12:16:25;100848.47;;;33.44;35.02
77159;BME280;66129;45.890;13.714;2023-06-26T12:18:51;100859.38;;;33.64;33.98
77159;BME280;66129;45.890;13.714;2023-06-26T12:24:03;100858.66;;;33.02;36.86
77159;BME280;66129;45.890;13.714;2023-06-26T12:26:29;100852.38;;;33.27;35.29
77159;BME280;66129;45.890;13.714;2023-06-26T12:29:06;100829.59;;;33.36;34.35
77159;BME280;66129;45.890;13.714;2023-06-26T12:31:32;100832.97;;;33.61;37.35
77159;BME280;66129;45.890;13.714;2023-06-26T12:33:58;100820.63;;;33.73;36.43
77159;BME280;66129;45.890;13.714;2023-06-26T12:36:24;100828.22;;;33.30;33.93
77159;BME280;66129;45.890;13.714;2023-06-26T12:38:50;100850.38;;;33.18;35.42
77159;BME280;66129;45.890;13.714;2023-06-26T12:41:16;100830.22;;;32.91;34.49
77159;BME280;66129;45.890;13.714;2023-06-26T12:43:42;100845.81;;;33.20;34.25
77159;BME280;66129;45.890;13.714;2023-06-26T12:46:08;100836.19;;;33.30;33.92
77159;BME280;66129;45.890;13.714;2023-06-26T12:48:41;100840.50;;;33.20;36.04
77159;BME280;66129;45.890;13.714;2023-06-26T12:51:14;100829.81;;;32.85;33.83
77159;BME280;66129;45.890;13.714;2023-06-26T12:53:40;100815.19;;;33.03;37.17
77159;BME280;66129;45.890;13.714;2023-06-26T12:56:06;100827.25;;;33.31;36.77